Patuxent River Nas/Trapnell Field/ Information

FAA: NHK - ICAO: KNHK

Patuxent River Nas/Trapnell Field/ (Airport) Location

State Maryland
County St Marys
City Patuxent River
Patuxent River Nas/Trapnell Field/ (Airport) is 0 miles north of Patuxent River, MD.
Latitude 38-17-10.7937N
Longitude 076-24-35.8488W
Elevation 38ft

Patuxent River Nas/Trapnell Field/ METARs

METAR KNHK 080552Z AUTO 00000KT 10SM FEW060 SCT075 BKN110 M02/M05 A3013 RMK AO2 SLP203 T10171050 10022 21017 58020 VISNO RY24 $
Altimeter 30.13"
Temperature -1.7°C (28.9°F)
Wind 0° at 0KT
Clouds few at 6,000ft scattered at 7,500ft broken at 11,000ft
Visibility 10.0mi
Time observed: 2021-12-08T05:52:00Z

Patuxent River Nas/Trapnell Field/ (Airport) Details

Status Operational
Activation February 1944
Ownership Military - Navy
Usage Private
Chart WASHINGTON
ATC on-site Yes
Beacon schedule sunset-sunrise
Beacon color split clear green

Patuxent River Nas/Trapnell Field/ (Airport) Contacts

Owner US NAVY
Owner address OCEANOGRAPHIC OFC-CODE 3142, WASHINGTON, DC 20373
Owner phone N/A
Manager SAMUEL C. LINTON, JR.
Manager address 11420 HOLLY SPRINGS RD, NANJEMOY, MD 20662
Manager phone 301-246-4285

Patuxent River Nas/Trapnell Field/ Radio Frequencies

Patuxent River Nas/Trapnell Field/ (Airport) Radio Frequencies

UNICOM N/A
Common traffic advisory frequency (CTAF) N/A